< < Back
Terminal Aerodrome Forecast


Current Version              Previous Versions:   1  2  3  4  5  6  7  8  9  

Terminal Aerodrome Forecast

159
FTUS42 KFFC 181900 AAA
TAFAHN
TAF AMD
KAHN 181930Z 1820/1918 06010G18KT 6SM SHRA OVC050
     FM182200 06012G22KT 5SM SHRA OVC015
     FM190000 05015G25KT 4SM SHRA BR OVC008
     FM190800 04018G28KT 6SM -SHRA BR OVC010
     FM191200 04014G24KT 6SM -RA BKN015=



Latest METAR

467
SAUS70 KWBC 182100
MTRAHN
METAR KAHN 182051Z 05011G16KT 5SM -RA BR SCT080 OVC100 10/08 A3017 RMK
AO2 PRESFR SLP217 P0008 60019 T01000083 58030


USA.gov is the U.S. government's official web portal to all federal, state and local government web resources and services.